sensor_id;sensor_type;location;lat;lon;timestamp;pressure;altitude;pressure_sealevel;temperature;humidity
13934;BME280;7039;52.168;9.866;2023-03-20T00:00:28;100700.38;;;12.26;89.11
13934;BME280;7039;52.168;9.866;2023-03-20T00:02:55;100701.50;;;12.22;88.70
13934;BME280;7039;52.168;9.866;2023-03-20T00:05:23;100714.81;;;12.33;88.53
13934;BME280;7039;52.168;9.866;2023-03-20T00:07:50;100711.47;;;12.31;88.23
13934;BME280;7039;52.168;9.866;2023-03-20T00:10:18;100714.63;;;12.20;88.55
13934;BME280;7039;52.168;9.866;2023-03-20T00:12:47;100713.53;;;11.91;90.53
13934;BME280;7039;52.168;9.866;2023-03-20T00:15:26;100722.91;;;11.95;90.51
13934;BME280;7039;52.168;9.866;2023-03-20T00:17:53;100723.59;;;11.99;90.34
13934;BME280;7039;52.168;9.866;2023-03-20T00:20:20;100721.50;;;12.05;90.13
13934;BME280;7039;52.168;9.866;2023-03-20T00:22:47;100713.22;;;11.97;90.56
13934;BME280;7039;52.168;9.866;2023-03-20T00:25:15;100711.28;;;12.01;90.51
13934;BME280;7039;52.168;9.866;2023-03-20T00:27:43;100722.88;;;12.12;90.19
13934;BME280;7039;52.168;9.866;2023-03-20T00:30:29;100720.94;;;12.16;89.91
13934;BME280;7039;52.168;9.866;2023-03-20T00:32:57;100726.09;;;12.18;89.68
13934;BME280;7039;52.168;9.866;2023-03-20T00:35:26;100722.78;;;12.14;89.95
13934;BME280;7039;52.168;9.866;2023-03-20T00:37:54;100721.69;;;11.67;91.28
13934;BME280;7039;52.168;9.866;2023-03-20T00:40:23;100732.03;;;11.86;90.77
13934;BME280;7039;52.168;9.866;2023-03-20T00:42:57;100730.25;;;11.87;91.08
13934;BME280;7039;52.168;9.866;2023-03-20T00:45:24;100725.78;;;11.90;90.36
13934;BME280;7039;52.168;9.866;2023-03-20T00:47:52;100721.38;;;11.39;92.22
13934;BME280;7039;52.168;9.866;2023-03-20T00:50:21;100730.09;;;11.20;93.80
13934;BME280;7039;52.168;9.866;2023-03-20T00:52:48;100727.94;;;11.11;94.27
13934;BME280;7039;52.168;9.866;2023-03-20T00:55:15;100738.63;;;11.24;93.81
13934;BME280;7039;52.168;9.866;2023-03-20T00:57:45;100740.56;;;11.20;94.37
13934;BME280;7039;52.168;9.866;2023-03-20T01:00:26;100738.50;;;11.27;94.54
13934;BME280;7039;52.168;9.866;2023-03-20T01:02:57;100738.94;;;11.18;94.26
13934;BME280;7039;52.168;9.866;2023-03-20T01:05:26;100733.06;;;11.13;93.42
13934;BME280;7039;52.168;9.866;2023-03-20T01:07:53;100739.44;;;11.07;94.13
13934;BME280;7039;52.168;9.866;2023-03-20T01:10:20;100734.38;;;10.85;95.94
13934;BME280;7039;52.168;9.866;2023-03-20T01:12:47;100735.25;;;10.85;95.58
13934;BME280;7039;52.168;9.866;2023-03-20T01:15:18;100732.44;;;11.07;94.88
13934;BME280;7039;52.168;9.866;2023-03-20T01:17:45;100740.84;;;11.14;94.82
13934;BME280;7039;52.168;9.866;2023-03-20T01:20:17;100741.91;;;11.10;94.59
13934;BME280;7039;52.168;9.866;2023-03-20T01:22:44;100742.13;;;11.05;94.41
13934;BME280;7039;52.168;9.866;2023-03-20T01:25:11;100738.06;;;11.00;94.21
13934;BME280;7039;52.168;9.866;2023-03-20T01:27:37;100746.38;;;10.89;95.29
13934;BME280;7039;52.168;9.866;2023-03-20T01:30:17;100744.16;;;10.99;94.88
13934;BME280;7039;52.168;9.866;2023-03-20T01:32:44;100753.78;;;10.98;95.11
13934;BME280;7039;52.168;9.866;2023-03-20T01:35:13;100750.94;;;11.22;93.85
13934;BME280;7039;52.168;9.866;2023-03-20T01:37:42;100746.63;;;11.21;94.09
13934;BME280;7039;52.168;9.866;2023-03-20T01:40:15;100747.19;;;11.45;92.50
13934;BME280;7039;52.168;9.866;2023-03-20T01:42:45;100751.66;;;11.43;92.66
13934;BME280;7039;52.168;9.866;2023-03-20T01:45:15;100759.38;;;11.44;92.46
13934;BME280;7039;52.168;9.866;2023-03-20T01:47:43;100760.09;;;11.48;91.95
13934;BME280;7039;52.168;9.866;2023-03-20T01:50:21;100753.75;;;11.54;91.70
13934;BME280;7039;52.168;9.866;2023-03-20T01:52:51;100763.31;;;11.53;91.99
13934;BME280;7039;52.168;9.866;2023-03-20T01:55:19;100759.47;;;11.60;91.54
13934;BME280;7039;52.168;9.866;2023-03-20T01:57:47;100761.19;;;11.61;91.51
13934;BME280;7039;52.168;9.866;2023-03-20T02:00:15;100767.00;;;11.66;91.50
13934;BME280;7039;52.168;9.866;2023-03-20T02:02:43;100768.78;;;11.83;90.67
13934;BME280;7039;52.168;9.866;2023-03-20T02:05:11;100765.72;;;11.75;90.71
13934;BME280;7039;52.168;9.866;2023-03-20T02:07:42;100756.50;;;11.68;90.65
13934;BME280;7039;52.168;9.866;2023-03-20T02:10:13;100762.47;;;11.53;90.85
13934;BME280;7039;52.168;9.866;2023-03-20T02:12:42;100768.00;;;11.64;90.84
13934;BME280;7039;52.168;9.866;2023-03-20T02:15:10;100778.00;;;11.73;90.91
13934;BME280;7039;52.168;9.866;2023-03-20T02:17:38;100776.31;;;11.72;90.35
13934;BME280;7039;52.168;9.866;2023-03-20T02:20:17;100777.94;;;11.75;90.52
13934;BME280;7039;52.168;9.866;2023-03-20T02:23:09;100774.50;;;11.74;90.92
13934;BME280;7039;52.168;9.866;2023-03-20T02:26:04;100780.63;;;11.73;90.63
13934;BME280;7039;52.168;9.866;2023-03-20T02:31:56;100787.00;;;11.14;92.21
13934;BME280;7039;52.168;9.866;2023-03-20T02:35:04;100793.75;;;11.18;92.03
13934;BME280;7039;52.168;9.866;2023-03-20T02:37:53;100805.91;;;11.00;92.25
13934;BME280;7039;52.168;9.866;2023-03-20T02:40:29;100810.69;;;10.71;92.13
13934;BME280;7039;52.168;9.866;2023-03-20T02:43:02;100800.72;;;10.60;91.84
13934;BME280;7039;52.168;9.866;2023-03-20T02:45:35;100805.56;;;10.70;91.83
13934;BME280;7039;52.168;9.866;2023-03-20T02:48:10;100804.91;;;10.64;91.76
13934;BME280;7039;52.168;9.866;2023-03-20T02:50:44;100798.22;;;10.59;92.09
13934;BME280;7039;52.168;9.866;2023-03-20T02:53:19;100796.72;;;10.53;91.29
13934;BME280;7039;52.168;9.866;2023-03-20T02:55:56;100800.88;;;10.57;90.93
13934;BME280;7039;52.168;9.866;2023-03-20T02:58:29;100803.84;;;10.69;89.87
13934;BME280;7039;52.168;9.866;2023-03-20T03:01:00;100802.22;;;10.66;88.46
13934;BME280;7039;52.168;9.866;2023-03-20T03:03:32;100795.66;;;10.57;86.13
13934;BME280;7039;52.168;9.866;2023-03-20T03:06:06;100795.66;;;10.76;84.43
13934;BME280;7039;52.168;9.866;2023-03-20T03:08:39;100789.50;;;10.79;84.12
13934;BME280;7039;52.168;9.866;2023-03-20T03:11:09;100799.50;;;10.88;83.73
13934;BME280;7039;52.168;9.866;2023-03-20T03:13:38;100792.88;;;11.00;83.18
13934;BME280;7039;52.168;9.866;2023-03-20T03:16:09;100783.63;;;10.93;82.60
13934;BME280;7039;52.168;9.866;2023-03-20T03:18:38;100798.56;;;10.89;82.94
13934;BME280;7039;52.168;9.866;2023-03-20T03:21:08;100797.88;;;10.85;82.98
13934;BME280;7039;52.168;9.866;2023-03-20T03:23:39;100800.03;;;10.76;82.62
13934;BME280;7039;52.168;9.866;2023-03-20T03:26:11;100795.44;;;10.81;82.88
13934;BME280;7039;52.168;9.866;2023-03-20T03:28:43;100792.22;;;10.76;82.26
13934;BME280;7039;52.168;9.866;2023-03-20T03:31:14;100794.19;;;10.71;82.73
13934;BME280;7039;52.168;9.866;2023-03-20T03:33:44;100792.28;;;10.55;83.25
13934;BME280;7039;52.168;9.866;2023-03-20T03:36:19;100801.88;;;10.55;83.15
13934;BME280;7039;52.168;9.866;2023-03-20T03:38:54;100798.63;;;10.50;83.37
13934;BME280;7039;52.168;9.866;2023-03-20T03:41:27;100792.69;;;10.46;83.75
13934;BME280;7039;52.168;9.866;2023-03-20T03:44:02;100789.88;;;10.51;83.42
13934;BME280;7039;52.168;9.866;2023-03-20T03:46:37;100780.84;;;10.39;83.71
13934;BME280;7039;52.168;9.866;2023-03-20T03:49:07;100792.75;;;10.44;84.27
13934;BME280;7039;52.168;9.866;2023-03-20T03:51:39;100789.09;;;10.28;84.70
13934;BME280;7039;52.168;9.866;2023-03-20T03:54:11;100791.00;;;10.45;85.04
13934;BME280;7039;52.168;9.866;2023-03-20T03:56:40;100787.34;;;10.49;85.25
13934;BME280;7039;52.168;9.866;2023-03-20T03:59:12;100785.38;;;10.54;84.74
13934;BME280;7039;52.168;9.866;2023-03-20T04:01:41;100781.47;;;10.44;84.81
13934;BME280;7039;52.168;9.866;2023-03-20T04:04:09;100781.88;;;10.35;85.63
13934;BME280;7039;52.168;9.866;2023-03-20T04:06:37;100781.56;;;10.42;84.83
13934;BME280;7039;52.168;9.866;2023-03-20T04:09:04;100777.41;;;10.38;84.68
13934;BME280;7039;52.168;9.866;2023-03-20T04:11:32;100787.47;;;10.25;85.09
13934;BME280;7039;52.168;9.866;2023-03-20T04:14:00;100785.78;;;10.24;85.35
13934;BME280;7039;52.168;9.866;2023-03-20T04:16:26;100792.63;;;10.27;85.41
13934;BME280;7039;52.168;9.866;2023-03-20T04:18:53;100791.91;;;10.23;85.52
13934;BME280;7039;52.168;9.866;2023-03-20T04:21:20;100792.69;;;10.25;85.63
13934;BME280;7039;52.168;9.866;2023-03-20T04:23:47;100791.91;;;10.23;85.62
13934;BME280;7039;52.168;9.866;2023-03-20T04:26:13;100802.88;;;10.32;85.68
13934;BME280;7039;52.168;9.866;2023-03-20T04:28:41;100800.72;;;10.41;85.62
13934;BME280;7039;52.168;9.866;2023-03-20T04:31:07;100790.91;;;10.47;84.87
13934;BME280;7039;52.168;9.866;2023-03-20T04:33:34;100791.13;;;10.42;85.27
13934;BME280;7039;52.168;9.866;2023-03-20T04:36:00;100782.47;;;10.41;85.23
13934;BME280;7039;52.168;9.866;2023-03-20T04:38:27;100784.09;;;10.23;85.85
13934;BME280;7039;52.168;9.866;2023-03-20T04:40:53;100783.09;;;10.26;85.22
13934;BME280;7039;52.168;9.866;2023-03-20T04:43:20;100772.50;;;10.31;85.45
13934;BME280;7039;52.168;9.866;2023-03-20T04:45:48;100774.91;;;10.35;85.54
13934;BME280;7039;52.168;9.866;2023-03-20T04:48:14;100774.16;;;10.33;85.87
13934;BME280;7039;52.168;9.866;2023-03-20T04:50:41;100775.25;;;10.07;86.42
13934;BME280;7039;52.168;9.866;2023-03-20T04:53:10;100780.31;;;10.10;87.05
13934;BME280;7039;52.168;9.866;2023-03-20T04:55:37;100774.78;;;9.97;87.38
13934;BME280;7039;52.168;9.866;2023-03-20T04:58:03;100769.25;;;10.05;87.72
13934;BME280;7039;52.168;9.866;2023-03-20T05:00:31;100765.94;;;10.01;87.81
13934;BME280;7039;52.168;9.866;2023-03-20T05:02:59;100773.41;;;10.09;87.83
13934;BME280;7039;52.168;9.866;2023-03-20T05:05:26;100769.09;;;10.08;87.68
13934;BME280;7039;52.168;9.866;2023-03-20T05:07:53;100772.28;;;10.15;87.43
13934;BME280;7039;52.168;9.866;2023-03-20T05:10:20;100761.88;;;10.35;86.77
13934;BME280;7039;52.168;9.866;2023-03-20T05:12:47;100759.06;;;10.40;86.17
13934;BME280;7039;52.168;9.866;2023-03-20T05:15:13;100762.31;;;10.45;85.67
13934;BME280;7039;52.168;9.866;2023-03-20T05:17:40;100754.97;;;10.53;85.13
13934;BME280;7039;52.168;9.866;2023-03-20T05:20:09;100754.44;;;10.65;84.95
13934;BME280;7039;52.168;9.866;2023-03-20T05:22:35;100756.63;;;10.75;84.27
13934;BME280;7039;52.168;9.866;2023-03-20T05:25:02;100757.53;;;10.74;84.04
13934;BME280;7039;52.168;9.866;2023-03-20T05:27:29;100756.91;;;10.69;83.90
13934;BME280;7039;52.168;9.866;2023-03-20T05:29:55;100752.00;;;10.42;84.36
13934;BME280;7039;52.168;9.866;2023-03-20T05:32:22;100753.72;;;10.43;84.22
13934;BME280;7039;52.168;9.866;2023-03-20T05:34:48;100753.72;;;10.43;84.89
13934;BME280;7039;52.168;9.866;2023-03-20T05:37:16;100754.66;;;10.61;84.23
13934;BME280;7039;52.168;9.866;2023-03-20T05:39:42;100751.94;;;10.43;84.74
13934;BME280;7039;52.168;9.866;2023-03-20T05:45:07;100760.41;;;10.49;84.80
13934;BME280;7039;52.168;9.866;2023-03-20T05:47:33;100764.72;;;10.50;84.88
13934;BME280;7039;52.168;9.866;2023-03-20T05:50:00;100760.75;;;10.41;84.97
13934;BME280;7039;52.168;9.866;2023-03-20T05:52:28;100754.19;;;10.32;85.69
13934;BME280;7039;52.168;9.866;2023-03-20T05:54:55;100768.91;;;10.13;86.44
13934;BME280;7039;52.168;9.866;2023-03-20T05:57:21;100764.84;;;10.26;86.35
13934;BME280;7039;52.168;9.866;2023-03-20T05:59:48;100766.38;;;10.11;86.99
13934;BME280;7039;52.168;9.866;2023-03-20T06:02:15;100765.22;;;9.98;87.76
13934;BME280;7039;52.168;9.866;2023-03-20T06:04:41;100777.44;;;10.16;87.78
13934;BME280;7039;52.168;9.866;2023-03-20T06:07:09;100784.44;;;10.16;88.43
13934;BME280;7039;52.168;9.866;2023-03-20T06:09:37;100779.41;;;10.11;88.20
13934;BME280;7039;52.168;9.866;2023-03-20T06:12:03;100780.91;;;9.96;89.30
13934;BME280;7039;52.168;9.866;2023-03-20T06:14:30;100782.41;;;10.02;89.43
13934;BME280;7039;52.168;9.866;2023-03-20T06:16:56;100770.56;;;9.95;89.52
13934;BME280;7039;52.168;9.866;2023-03-20T06:19:23;100778.78;;;10.06;89.42
13934;BME280;7039;52.168;9.866;2023-03-20T06:21:49;100788.78;;;10.15;89.89
13934;BME280;7039;52.168;9.866;2023-03-20T06:24:16;100788.00;;;10.13;89.51
13934;BME280;7039;52.168;9.866;2023-03-20T06:26:44;100782.25;;;10.25;89.15
13934;BME280;7039;52.168;9.866;2023-03-20T06:29:10;100774.31;;;10.29;88.82
13934;BME280;7039;52.168;9.866;2023-03-20T06:31:37;100779.66;;;10.05;89.78
13934;BME280;7039;52.168;9.866;2023-03-20T06:34:03;100780.63;;;10.23;89.31
13934;BME280;7039;52.168;9.866;2023-03-20T06:36:30;100784.09;;;10.23;89.42
13934;BME280;7039;52.168;9.866;2023-03-20T06:38:56;100791.06;;;10.43;89.06
13934;BME280;7039;52.168;9.866;2023-03-20T06:41:23;100792.88;;;10.41;88.68
13934;BME280;7039;52.168;9.866;2023-03-20T06:43:51;100799.88;;;10.41;88.64
13934;BME280;7039;52.168;9.866;2023-03-20T06:46:17;100801.06;;;10.34;88.77
13934;BME280;7039;52.168;9.866;2023-03-20T06:48:44;100805.50;;;10.32;88.95
13934;BME280;7039;52.168;9.866;2023-03-20T06:51:10;100802.53;;;10.19;88.99
13934;BME280;7039;52.168;9.866;2023-03-20T06:53:37;100809.31;;;10.43;88.11
13934;BME280;7039;52.168;9.866;2023-03-20T06:56:04;100811.97;;;10.42;89.24
13934;BME280;7039;52.168;9.866;2023-03-20T06:58:30;100824.91;;;10.45;89.55
13934;BME280;7039;52.168;9.866;2023-03-20T07:00:58;100826.16;;;10.36;89.53
13934;BME280;7039;52.168;9.866;2023-03-20T07:03:25;100822.13;;;10.29;89.65
13934;BME280;7039;52.168;9.866;2023-03-20T07:05:51;100814.22;;;10.31;90.04
13934;BME280;7039;52.168;9.866;2023-03-20T07:08:18;100818.25;;;10.17;89.85
13934;BME280;7039;52.168;9.866;2023-03-20T07:10:44;100826.78;;;10.21;89.67
13934;BME280;7039;52.168;9.866;2023-03-20T07:13:11;100825.16;;;10.18;90.13
13934;BME280;7039;52.168;9.866;2023-03-20T07:15:38;100823.81;;;10.08;89.69
13934;BME280;7039;52.168;9.866;2023-03-20T07:18:06;100825.41;;;10.12;89.88
13934;BME280;7039;52.168;9.866;2023-03-20T07:20:32;100816.34;;;9.80;90.24
13934;BME280;7039;52.168;9.866;2023-03-20T07:22:59;100822.53;;;9.98;89.51
13934;BME280;7039;52.168;9.866;2023-03-20T07:25:25;100839.19;;;9.94;89.22
13934;BME280;7039;52.168;9.866;2023-03-20T07:27:52;100834.31;;;9.86;89.35
13934;BME280;7039;52.168;9.866;2023-03-20T07:30:19;100838.59;;;9.87;88.89
13934;BME280;7039;52.168;9.866;2023-03-20T07:32:45;100840.53;;;10.04;87.43
13934;BME280;7039;52.168;9.866;2023-03-20T07:35:14;100845.59;;;10.29;86.26
13934;BME280;7039;52.168;9.866;2023-03-20T07:37:41;100829.72;;;10.13;86.14
13934;BME280;7039;52.168;9.866;2023-03-20T07:40:08;100831.34;;;9.95;85.81
13934;BME280;7039;52.168;9.866;2023-03-20T07:42:35;100833.22;;;10.12;84.46
13934;BME280;7039;52.168;9.866;2023-03-20T07:45:02;100836.84;;;10.08;84.36
13934;BME280;7039;52.168;9.866;2023-03-20T07:47:28;100840.16;;;10.13;83.73
13934;BME280;7039;52.168;9.866;2023-03-20T07:49:55;100848.19;;;10.29;83.77
13934;BME280;7039;52.168;9.866;2023-03-20T07:52:23;100844.47;;;10.35;83.24
13934;BME280;7039;52.168;9.866;2023-03-20T07:54:49;100838.38;;;9.93;83.57
13934;BME280;7039;52.168;9.866;2023-03-20T07:57:16;100861.38;;;10.24;83.14
13934;BME280;7039;52.168;9.866;2023-03-20T07:59:42;100848.59;;;10.18;82.16
13934;BME280;7039;52.168;9.866;2023-03-20T08:02:13;100853.97;;;10.15;82.07
13934;BME280;7039;52.168;9.866;2023-03-20T08:04:40;100855.88;;;10.10;82.68
13934;BME280;7039;52.168;9.866;2023-03-20T08:07:06;100854.00;;;10.14;82.61
13934;BME280;7039;52.168;9.866;2023-03-20T08:09:34;100853.09;;;10.15;82.87
13934;BME280;7039;52.168;9.866;2023-03-20T08:12:01;100858.81;;;9.82;83.14
13934;BME280;7039;52.168;9.866;2023-03-20T08:14:27;100850.44;;;10.16;82.80
13934;BME280;7039;52.168;9.866;2023-03-20T08:16:54;100848.94;;;10.11;81.86
13934;BME280;7039;52.168;9.866;2023-03-20T08:19:20;100842.22;;;10.05;82.17
13934;BME280;7039;52.168;9.866;2023-03-20T08:21:47;100850.50;;;10.35;82.28
13934;BME280;7039;52.168;9.866;2023-03-20T08:24:14;100862.44;;;10.41;81.88
13934;BME280;7039;52.168;9.866;2023-03-20T08:26:42;100862.78;;;10.33;82.12
13934;BME280;7039;52.168;9.866;2023-03-20T08:29:10;100862.78;;;10.33;82.56
13934;BME280;7039;52.168;9.866;2023-03-20T08:31:37;100849.25;;;10.23;82.18
13934;BME280;7039;52.168;9.866;2023-03-20T08:34:03;100853.63;;;10.23;82.57
13934;BME280;7039;52.168;9.866;2023-03-20T08:36:30;100854.41;;;10.25;82.91
13934;BME280;7039;52.168;9.866;2023-03-20T08:38:56;100852.81;;;10.43;82.66
13934;BME280;7039;52.168;9.866;2023-03-20T08:41:23;100857.94;;;10.44;81.12
13934;BME280;7039;52.168;9.866;2023-03-20T08:43:50;100862.13;;;10.49;82.35
13934;BME280;7039;52.168;9.866;2023-03-20T08:46:17;100859.19;;;10.56;82.28
13934;BME280;7039;52.168;9.866;2023-03-20T08:48:43;100862.00;;;10.52;82.08
13934;BME280;7039;52.168;9.866;2023-03-20T08:51:10;100868.28;;;10.66;82.08
13934;BME280;7039;52.168;9.866;2023-03-20T08:53:37;100859.38;;;10.52;82.16
13934;BME280;7039;52.168;9.866;2023-03-20T08:56:04;100860.03;;;10.36;81.94
13934;BME280;7039;52.168;9.866;2023-03-20T08:58:30;100872.03;;;10.61;81.95
13934;BME280;7039;52.168;9.866;2023-03-20T09:01:02;100884.59;;;10.51;81.79
13934;BME280;7039;52.168;9.866;2023-03-20T09:03:29;100873.97;;;10.35;81.28
13934;BME280;7039;52.168;9.866;2023-03-20T09:05:56;100874.13;;;10.32;81.27
13934;BME280;7039;52.168;9.866;2023-03-20T09:08:22;100882.13;;;10.48;81.07
13934;BME280;7039;52.168;9.866;2023-03-20T09:10:49;100873.53;;;10.46;80.97
13934;BME280;7039;52.168;9.866;2023-03-20T09:13:15;100876.13;;;10.46;81.00
13934;BME280;7039;52.168;9.866;2023-03-20T09:15:42;100877.03;;;10.65;80.81
13934;BME280;7039;52.168;9.866;2023-03-20T09:18:10;100890.00;;;10.67;80.53
13934;BME280;7039;52.168;9.866;2023-03-20T09:20:36;100875.47;;;10.61;80.21
13934;BME280;7039;52.168;9.866;2023-03-20T09:23:03;100874.72;;;10.78;80.07
13934;BME280;7039;52.168;9.866;2023-03-20T09:25:29;100871.22;;;10.79;79.45
13934;BME280;7039;52.168;9.866;2023-03-20T09:27:56;100870.84;;;10.87;79.72
13934;BME280;7039;52.168;9.866;2023-03-20T09:30:22;100870.44;;;10.96;79.30
13934;BME280;7039;52.168;9.866;2023-03-20T09:32:49;100879.50;;;10.69;80.69
13934;BME280;7039;52.168;9.866;2023-03-20T09:35:18;100871.25;;;10.59;79.68
13934;BME280;7039;52.168;9.866;2023-03-20T09:37:45;100873.28;;;10.52;81.21
13934;BME280;7039;52.168;9.866;2023-03-20T09:40:21;100878.91;;;10.62;81.05
13934;BME280;7039;52.168;9.866;2023-03-20T09:42:52;100883.69;;;10.73;79.93
13934;BME280;7039;52.168;9.866;2023-03-20T09:45:26;100876.84;;;10.70;80.34
13934;BME280;7039;52.168;9.866;2023-03-20T09:48:04;100872.94;;;10.60;81.04
13934;BME280;7039;52.168;9.866;2023-03-20T09:50:42;100873.03;;;10.38;80.34
13934;BME280;7039;52.168;9.866;2023-03-20T09:53:16;100874.94;;;10.53;79.93
13934;BME280;7039;52.168;9.866;2023-03-20T09:55:46;100882.47;;;10.61;80.20
13934;BME280;7039;52.168;9.866;2023-03-20T09:58:18;100888.06;;;10.52;79.18
13934;BME280;7039;52.168;9.866;2023-03-20T10:00:46;100888.94;;;10.71;79.26
13934;BME280;7039;52.168;9.866;2023-03-20T10:03:18;100885.34;;;10.74;79.02
13934;BME280;7039;52.168;9.866;2023-03-20T10:05:51;100876.47;;;10.38;79.00
13934;BME280;7039;52.168;9.866;2023-03-20T10:08:22;100882.63;;;10.15;79.39
13934;BME280;7039;52.168;9.866;2023-03-20T10:10:57;100893.00;;;10.37;79.01
13934;BME280;7039;52.168;9.866;2023-03-20T10:13:38;100884.94;;;10.64;78.40
13934;BME280;7039;52.168;9.866;2023-03-20T10:16:16;100878.94;;;10.81;77.55
13934;BME280;7039;52.168;9.866;2023-03-20T10:18:48;100893.97;;;11.15;76.18
13934;BME280;7039;52.168;9.866;2023-03-20T10:21:22;100881.88;;;11.13;76.25
13934;BME280;7039;52.168;9.866;2023-03-20T10:23:56;100882.53;;;11.18;75.33
13934;BME280;7039;52.168;9.866;2023-03-20T10:26:26;100888.44;;;11.21;73.66
13934;BME280;7039;52.168;9.866;2023-03-20T10:28:57;100888.91;;;11.48;73.95
13934;BME280;7039;52.168;9.866;2023-03-20T10:31:33;100889.13;;;11.63;74.51
13934;BME280;7039;52.168;9.866;2023-03-20T10:34:18;100895.78;;;11.32;74.01
13934;BME280;7039;52.168;9.866;2023-03-20T10:37:00;100892.88;;;10.81;74.88
13934;BME280;7039;52.168;9.866;2023-03-20T10:39:42;100893.44;;;10.88;74.36
13934;BME280;7039;52.168;9.866;2023-03-20T10:42:16;100879.97;;;10.97;74.00
13934;BME280;7039;52.168;9.866;2023-03-20T10:44:51;100885.69;;;10.86;74.45
13934;BME280;7039;52.168;9.866;2023-03-20T10:47:20;100886.31;;;10.92;74.38
13934;BME280;7039;52.168;9.866;2023-03-20T10:49:53;100886.09;;;10.96;73.50
13934;BME280;7039;52.168;9.866;2023-03-20T10:52:26;100883.88;;;11.26;73.88
13934;BME280;7039;52.168;9.866;2023-03-20T10:54:55;100881.19;;;11.09;72.63
13934;BME280;7039;52.168;9.866;2023-03-20T10:57:25;100872.72;;;11.23;72.63
13934;BME280;7039;52.168;9.866;2023-03-20T10:59:55;100877.16;;;11.21;72.48
13934;BME280;7039;52.168;9.866;2023-03-20T11:02:26;100881.53;;;11.20;71.80
13934;BME280;7039;52.168;9.866;2023-03-20T11:04:53;100887.88;;;11.34;72.42
13934;BME280;7039;52.168;9.866;2023-03-20T11:07:24;100880.75;;;11.74;71.69
13934;BME280;7039;52.168;9.866;2023-03-20T11:10:12;100868.88;;;11.49;71.09
13934;BME280;7039;52.168;9.866;2023-03-20T11:12:42;100859.72;;;11.40;71.57
13934;BME280;7039;52.168;9.866;2023-03-20T11:15:21;100854.16;;;11.29;72.46
13934;BME280;7039;52.168;9.866;2023-03-20T11:17:52;100860.56;;;11.41;71.49
13934;BME280;7039;52.168;9.866;2023-03-20T11:20:20;100848.72;;;11.34;70.51
13934;BME280;7039;52.168;9.866;2023-03-20T11:22:49;100859.28;;;11.49;71.46
13934;BME280;7039;52.168;9.866;2023-03-20T11:25:26;100861.91;;;11.67;71.05
13934;BME280;7039;52.168;9.866;2023-03-20T11:27:54;100844.19;;;11.37;71.01
13934;BME280;7039;52.168;9.866;2023-03-20T11:30:21;100841.50;;;11.39;70.94
13934;BME280;7039;52.168;9.866;2023-03-20T11:32:49;100841.53;;;11.20;70.35
13934;BME280;7039;52.168;9.866;2023-03-20T11:35:21;100835.88;;;11.10;70.68
13934;BME280;7039;52.168;9.866;2023-03-20T11:37:54;100832.41;;;11.28;70.31
13934;BME280;7039;52.168;9.866;2023-03-20T11:40:32;100827.00;;;11.14;69.64
13934;BME280;7039;52.168;9.866;2023-03-20T11:43:04;100816.03;;;11.25;69.15
13934;BME280;7039;52.168;9.866;2023-03-20T11:45:34;100826.38;;;11.09;69.45
13934;BME280;7039;52.168;9.866;2023-03-20T11:48:02;100812.75;;;10.83;68.88
13934;BME280;7039;52.168;9.866;2023-03-20T11:50:31;100819.38;;;11.10;68.15
13934;BME280;7039;52.168;9.866;2023-03-20T11:52:59;100810.34;;;11.17;68.43
13934;BME280;7039;52.168;9.866;2023-03-20T11:55:28;100819.78;;;11.19;68.81
13934;BME280;7039;52.168;9.866;2023-03-20T11:57:57;100803.25;;;11.38;67.99
13934;BME280;7039;52.168;9.866;2023-03-20T12:00:25;100807.66;;;11.55;68.60
13934;BME280;7039;52.168;9.866;2023-03-20T12:02:53;100818.59;;;11.63;67.49
13934;BME280;7039;52.168;9.866;2023-03-20T12:05:31;100820.31;;;11.99;66.22
13934;BME280;7039;52.168;9.866;2023-03-20T12:08:04;100810.03;;;12.13;66.42
13934;BME280;7039;52.168;9.866;2023-03-20T12:10:35;100808.06;;;12.17;66.83
13934;BME280;7039;52.168;9.866;2023-03-20T12:13:05;100800.63;;;12.09;66.21
13934;BME280;7039;52.168;9.866;2023-03-20T12:15:39;100800.22;;;12.17;66.60
13934;BME280;7039;52.168;9.866;2023-03-20T12:18:09;100787.31;;;12.14;64.68
13934;BME280;7039;52.168;9.866;2023-03-20T12:20:44;100785.78;;;12.09;65.47
13934;BME280;7039;52.168;9.866;2023-03-20T12:23:17;100781.25;;;12.13;65.82
13934;BME280;7039;52.168;9.866;2023-03-20T12:25:50;100780.47;;;12.44;65.06
13934;BME280;7039;52.168;9.866;2023-03-20T12:28:23;100788.22;;;12.30;61.90
13934;BME280;7039;52.168;9.866;2023-03-20T12:30:58;100776.50;;;12.37;61.80
13934;BME280;7039;52.168;9.866;2023-03-20T12:33:36;100780.94;;;12.52;62.77
13934;BME280;7039;52.168;9.866;2023-03-20T12:36:12;100780.38;;;12.79;60.79
13934;BME280;7039;52.168;9.866;2023-03-20T12:38:40;100793.38;;;12.81;61.49
13934;BME280;7039;52.168;9.866;2023-03-20T12:41:11;100792.25;;;13.48;61.27
13934;BME280;7039;52.168;9.866;2023-03-20T12:43:48;100798.34;;;13.49;60.82
13934;BME280;7039;52.168;9.866;2023-03-20T12:46:25;100792.41;;;13.31;60.16
13934;BME280;7039;52.168;9.866;2023-03-20T12:49:02;100784.94;;;13.07;60.21
13934;BME280;7039;52.168;9.866;2023-03-20T12:51:37;100784.16;;;13.05;61.32
13934;BME280;7039;52.168;9.866;2023-03-20T12:54:19;100785.03;;;13.22;61.69
13934;BME280;7039;52.168;9.866;2023-03-20T12:57:03;100789.50;;;13.20;59.05
13934;BME280;7039;52.168;9.866;2023-03-20T12:59:39;100787.22;;;12.98;59.12
13934;BME280;7039;52.168;9.866;2023-03-20T13:02:21;100787.38;;;13.26;60.51
13934;BME280;7039;52.168;9.866;2023-03-20T13:04:59;100783.84;;;12.80;57.05
13934;BME280;7039;52.168;9.866;2023-03-20T13:07:39;100771.44;;;12.83;58.70
13934;BME280;7039;52.168;9.866;2023-03-20T13:10:16;100780.44;;;13.25;58.92
13934;BME280;7039;52.168;9.866;2023-03-20T13:12:53;100779.34;;;13.13;58.48
13934;BME280;7039;52.168;9.866;2023-03-20T13:15:34;100765.31;;;13.14;58.20
13934;BME280;7039;52.168;9.866;2023-03-20T13:18:10;100758.34;;;12.99;60.19
13934;BME280;7039;52.168;9.866;2023-03-20T13:20:47;100763.06;;;13.08;57.85